Saint Cloud, Florida
Current Conditions -  °F | °C
As of 9:47 PM on Tuesday 25 Nov 2014 (Local Time) from KISM Reporting Station
Overcast Overcast  
Wind Chill: 70°   Ceiling: 1700
Heat Index: 70°   Visibility: 10mi
Dew Point: 70°   Wind: 5mph
Humidity: 100%   Direction: 50°NE
Pressure: 29.93"   Gusts: NA
Location:  28.25°N, 81.28°W
Report Text: KISM 260247Z 05004KT 10SM FEW004 BKN017 OVC026 21/21 A2993 RMK LAST
Loading
Personal Weather Stations






























Interactive Weather Map New forecast layout! Learn more

10-Day Weather Forecast

Advertisements
Track Severe Weather on mobile